sensor_id;sensor_type;location;lat;lon;timestamp;P1;durP1;ratioP1;P2;durP2;ratioP2
23716;SDS011;22094;52.130;5.598;2023-09-08T00:02:05;11.95;;;10.80;;
23716;SDS011;22094;52.130;5.598;2023-09-08T00:04:31;12.88;;;11.60;;
23716;SDS011;22094;52.130;5.598;2023-09-08T00:06:58;12.93;;;11.50;;
23716;SDS011;22094;52.130;5.598;2023-09-08T00:09:23;12.50;;;11.30;;
23716;SDS011;22094;52.130;5.598;2023-09-08T00:11:49;14.50;;;12.15;;
23716;SDS011;22094;52.130;5.598;2023-09-08T00:14:15;13.75;;;12.20;;
23716;SDS011;22094;52.130;5.598;2023-09-08T00:16:40;13.02;;;11.75;;
23716;SDS011;22094;52.130;5.598;2023-09-08T00:19:07;14.10;;;12.18;;
23716;SDS011;22094;52.130;5.598;2023-09-08T00:21:34;13.70;;;11.95;;
23716;SDS011;22094;52.130;5.598;2023-09-08T00:23:59;14.50;;;12.25;;
23716;SDS011;22094;52.130;5.598;2023-09-08T00:26:26;13.85;;;12.35;;
23716;SDS011;22094;52.130;5.598;2023-09-08T00:28:51;13.23;;;11.77;;
23716;SDS011;22094;52.130;5.598;2023-09-08T00:31:17;13.30;;;11.80;;
23716;SDS011;22094;52.130;5.598;2023-09-08T00:33:42;16.75;;;12.57;;
23716;SDS011;22094;52.130;5.598;2023-09-08T00:36:09;16.33;;;13.27;;
23716;SDS011;22094;52.130;5.598;2023-09-08T00:38:35;14.80;;;13.00;;
23716;SDS011;22094;52.130;5.598;2023-09-08T00:41:00;14.10;;;12.68;;
23716;SDS011;22094;52.130;5.598;2023-09-08T00:43:26;16.38;;;13.48;;
23716;SDS011;22094;52.130;5.598;2023-09-08T00:45:52;14.80;;;13.30;;
23716;SDS011;22094;52.130;5.598;2023-09-08T00:48:20;15.80;;;13.48;;
23716;SDS011;22094;52.130;5.598;2023-09-08T00:50:46;15.63;;;13.73;;
23716;SDS011;22094;52.130;5.598;2023-09-08T00:53:12;15.43;;;13.93;;
23716;SDS011;22094;52.130;5.598;2023-09-08T00:55:38;15.85;;;14.25;;
23716;SDS011;22094;52.130;5.598;2023-09-08T00:58:05;15.30;;;13.60;;
23716;SDS011;22094;52.130;5.598;2023-09-08T01:00:31;17.40;;;13.80;;
23716;SDS011;22094;52.130;5.598;2023-09-08T01:02:57;18.35;;;13.80;;
23716;SDS011;22094;52.130;5.598;2023-09-08T01:05:23;15.73;;;13.82;;
23716;SDS011;22094;52.130;5.598;2023-09-08T01:07:49;15.93;;;14.23;;
23716;SDS011;22094;52.130;5.598;2023-09-08T01:10:16;16.08;;;14.48;;
23716;SDS011;22094;52.130;5.598;2023-09-08T01:12:42;15.80;;;14.20;;
23716;SDS011;22094;52.130;5.598;2023-09-08T01:15:08;17.35;;;15.18;;
23716;SDS011;22094;52.130;5.598;2023-09-08T01:17:33;16.60;;;13.85;;
23716;SDS011;22094;52.130;5.598;2023-09-08T01:28:17;17.20;;;14.73;;
23716;SDS011;22094;52.130;5.598;2023-09-08T01:30:45;17.23;;;15.43;;
23716;SDS011;22094;52.130;5.598;2023-09-08T01:33:11;17.33;;;15.50;;
23716;SDS011;22094;52.130;5.598;2023-09-08T01:35:37;18.02;;;15.02;;
23716;SDS011;22094;52.130;5.598;2023-09-08T01:38:03;17.20;;;15.20;;
23716;SDS011;22094;52.130;5.598;2023-09-08T01:40:29;16.58;;;15.02;;
23716;SDS011;22094;52.130;5.598;2023-09-08T01:42:54;17.15;;;15.02;;
23716;SDS011;22094;52.130;5.598;2023-09-08T01:45:20;17.83;;;15.77;;
23716;SDS011;22094;52.130;5.598;2023-09-08T01:47:45;17.00;;;15.20;;
23716;SDS011;22094;52.130;5.598;2023-09-08T01:50:11;17.40;;;15.60;;
23716;SDS011;22094;52.130;5.598;2023-09-08T01:52:36;18.20;;;15.55;;
23716;SDS011;22094;52.130;5.598;2023-09-08T01:55:02;17.50;;;15.65;;
23716;SDS011;22094;52.130;5.598;2023-09-08T01:57:28;17.13;;;15.35;;
23716;SDS011;22094;52.130;5.598;2023-09-08T01:59:53;17.95;;;16.13;;
23716;SDS011;22094;52.130;5.598;2023-09-08T02:02:19;18.15;;;16.05;;
23716;SDS011;22094;52.130;5.598;2023-09-08T02:04:44;18.08;;;16.00;;
23716;SDS011;22094;52.130;5.598;2023-09-08T02:07:10;20.35;;;16.67;;
23716;SDS011;22094;52.130;5.598;2023-09-08T02:09:36;18.27;;;16.40;;
23716;SDS011;22094;52.130;5.598;2023-09-08T02:12:03;18.17;;;16.27;;
23716;SDS011;22094;52.130;5.598;2023-09-08T02:14:29;18.25;;;16.40;;
23716;SDS011;22094;52.130;5.598;2023-09-08T02:16:55;19.20;;;17.20;;
23716;SDS011;22094;52.130;5.598;2023-09-08T02:19:21;19.00;;;17.00;;
23716;SDS011;22094;52.130;5.598;2023-09-08T02:21:47;18.50;;;16.60;;
23716;SDS011;22094;52.130;5.598;2023-09-08T02:24:13;19.08;;;17.08;;
23716;SDS011;22094;52.130;5.598;2023-09-08T02:26:39;20.30;;;17.38;;
23716;SDS011;22094;52.130;5.598;2023-09-08T02:29:05;19.60;;;17.50;;
23716;SDS011;22094;52.130;5.598;2023-09-08T02:31:31;20.40;;;18.25;;
23716;SDS011;22094;52.130;5.598;2023-09-08T02:33:56;21.58;;;18.67;;
23716;SDS011;22094;52.130;5.598;2023-09-08T02:36:22;23.00;;;18.83;;
23716;SDS011;22094;52.130;5.598;2023-09-08T02:38:54;20.63;;;18.52;;
23716;SDS011;22094;52.130;5.598;2023-09-08T02:41:20;21.38;;;19.10;;
23716;SDS011;22094;52.130;5.598;2023-09-08T02:43:46;21.50;;;19.08;;
23716;SDS011;22094;52.130;5.598;2023-09-08T02:46:12;24.38;;;19.13;;
23716;SDS011;22094;52.130;5.598;2023-09-08T02:48:39;20.90;;;18.77;;
23716;SDS011;22094;52.130;5.598;2023-09-08T02:51:05;21.45;;;19.20;;
23716;SDS011;22094;52.130;5.598;2023-09-08T02:53:30;22.15;;;19.77;;
23716;SDS011;22094;52.130;5.598;2023-09-08T02:55:57;22.20;;;19.92;;
23716;SDS011;22094;52.130;5.598;2023-09-08T02:58:24;21.83;;;19.63;;
23716;SDS011;22094;52.130;5.598;2023-09-08T03:00:50;21.55;;;19.35;;
23716;SDS011;22094;52.130;5.598;2023-09-08T03:03:20;21.65;;;19.45;;
23716;SDS011;22094;52.130;5.598;2023-09-08T03:05:45;24.90;;;20.23;;
23716;SDS011;22094;52.130;5.598;2023-09-08T03:08:11;22.63;;;20.30;;
23716;SDS011;22094;52.130;5.598;2023-09-08T03:10:37;21.75;;;19.63;;
23716;SDS011;22094;52.130;5.598;2023-09-08T03:13:03;23.63;;;20.08;;
23716;SDS011;22094;52.130;5.598;2023-09-08T03:15:29;23.77;;;21.27;;
23716;SDS011;22094;52.130;5.598;2023-09-08T03:17:55;23.13;;;20.73;;
23716;SDS011;22094;52.130;5.598;2023-09-08T03:20:22;22.63;;;20.33;;
23716;SDS011;22094;52.130;5.598;2023-09-08T03:22:47;23.02;;;20.58;;
23716;SDS011;22094;52.130;5.598;2023-09-08T03:25:13;22.95;;;20.40;;
23716;SDS011;22094;52.130;5.598;2023-09-08T03:27:40;24.50;;;21.48;;
23716;SDS011;22094;52.130;5.598;2023-09-08T03:30:05;24.52;;;21.10;;
23716;SDS011;22094;52.130;5.598;2023-09-08T03:32:31;23.63;;;21.17;;
23716;SDS011;22094;52.130;5.598;2023-09-08T03:34:57;23.27;;;20.73;;
23716;SDS011;22094;52.130;5.598;2023-09-08T03:37:22;22.40;;;20.08;;
23716;SDS011;22094;52.130;5.598;2023-09-08T03:39:48;24.00;;;20.77;;
23716;SDS011;22094;52.130;5.598;2023-09-08T03:42:14;23.42;;;20.95;;
23716;SDS011;22094;52.130;5.598;2023-09-08T03:44:39;24.45;;;21.30;;
23716;SDS011;22094;52.130;5.598;2023-09-08T03:47:05;24.23;;;21.33;;
23716;SDS011;22094;52.130;5.598;2023-09-08T03:49:31;28.40;;;21.83;;
23716;SDS011;22094;52.130;5.598;2023-09-08T03:51:58;25.38;;;22.30;;
23716;SDS011;22094;52.130;5.598;2023-09-08T03:54:23;24.02;;;21.45;;
23716;SDS011;22094;52.130;5.598;2023-09-08T03:56:49;26.55;;;21.88;;
23716;SDS011;22094;52.130;5.598;2023-09-08T03:59:14;26.25;;;21.65;;
23716;SDS011;22094;52.130;5.598;2023-09-08T04:01:40;24.38;;;21.83;;
23716;SDS011;22094;52.130;5.598;2023-09-08T04:04:06;24.00;;;21.40;;
23716;SDS011;22094;52.130;5.598;2023-09-08T04:06:32;25.52;;;22.70;;
23716;SDS011;22094;52.130;5.598;2023-09-08T04:08:57;24.50;;;21.77;;
23716;SDS011;22094;52.130;5.598;2023-09-08T04:11:23;26.83;;;22.38;;
23716;SDS011;22094;52.130;5.598;2023-09-08T04:13:48;25.17;;;21.52;;
23716;SDS011;22094;52.130;5.598;2023-09-08T04:16:14;27.40;;;23.38;;
23716;SDS011;22094;52.130;5.598;2023-09-08T04:18:40;25.95;;;23.15;;
23716;SDS011;22094;52.130;5.598;2023-09-08T04:21:06;26.17;;;23.33;;
23716;SDS011;22094;52.130;5.598;2023-09-08T04:23:32;26.92;;;22.80;;
23716;SDS011;22094;52.130;5.598;2023-09-08T04:25:58;28.42;;;22.98;;
23716;SDS011;22094;52.130;5.598;2023-09-08T04:28:24;30.88;;;23.67;;
23716;SDS011;22094;52.130;5.598;2023-09-08T04:30:50;26.33;;;22.35;;
23716;SDS011;22094;52.130;5.598;2023-09-08T04:33:15;25.83;;;23.08;;
23716;SDS011;22094;52.130;5.598;2023-09-08T04:35:41;27.33;;;23.58;;
23716;SDS011;22094;52.130;5.598;2023-09-08T04:38:06;25.77;;;22.90;;
23716;SDS011;22094;52.130;5.598;2023-09-08T04:40:32;25.65;;;22.80;;
23716;SDS011;22094;52.130;5.598;2023-09-08T04:42:58;26.73;;;23.88;;
23716;SDS011;22094;52.130;5.598;2023-09-08T04:45:24;29.83;;;23.67;;
23716;SDS011;22094;52.130;5.598;2023-09-08T04:47:50;30.05;;;24.75;;
23716;SDS011;22094;52.130;5.598;2023-09-08T04:50:16;27.90;;;24.55;;
23716;SDS011;22094;52.130;5.598;2023-09-08T04:52:42;27.77;;;24.13;;
23716;SDS011;22094;52.130;5.598;2023-09-08T04:55:07;27.73;;;24.23;;
23716;SDS011;22094;52.130;5.598;2023-09-08T04:57:33;27.55;;;24.08;;
23716;SDS011;22094;52.130;5.598;2023-09-08T04:59:59;29.75;;;24.52;;
23716;SDS011;22094;52.130;5.598;2023-09-08T05:02:24;27.70;;;24.17;;
23716;SDS011;22094;52.130;5.598;2023-09-08T05:04:50;32.20;;;25.48;;
23716;SDS011;22094;52.130;5.598;2023-09-08T05:07:15;28.55;;;25.45;;
23716;SDS011;22094;52.130;5.598;2023-09-08T05:09:43;29.67;;;25.33;;
23716;SDS011;22094;52.130;5.598;2023-09-08T05:12:08;28.98;;;24.13;;
23716;SDS011;22094;52.130;5.598;2023-09-08T05:14:34;30.75;;;24.90;;
23716;SDS011;22094;52.130;5.598;2023-09-08T05:16:59;30.27;;;24.70;;
23716;SDS011;22094;52.130;5.598;2023-09-08T05:19:25;30.60;;;24.92;;
23716;SDS011;22094;52.130;5.598;2023-09-08T05:21:51;30.33;;;25.88;;
23716;SDS011;22094;52.130;5.598;2023-09-08T05:24:18;27.30;;;24.08;;
23716;SDS011;22094;52.130;5.598;2023-09-08T05:26:44;31.40;;;24.65;;
23716;SDS011;22094;52.130;5.598;2023-09-08T05:29:09;28.55;;;25.08;;
23716;SDS011;22094;52.130;5.598;2023-09-08T05:31:35;28.50;;;24.50;;
23716;SDS011;22094;52.130;5.598;2023-09-08T05:34:00;31.08;;;24.27;;
23716;SDS011;22094;52.130;5.598;2023-09-08T05:36:26;30.88;;;25.17;;
23716;SDS011;22094;52.130;5.598;2023-09-08T05:38:51;28.05;;;24.77;;
23716;SDS011;22094;52.130;5.598;2023-09-08T05:41:17;27.40;;;24.40;;
23716;SDS011;22094;52.130;5.598;2023-09-08T05:43:44;31.02;;;24.08;;
23716;SDS011;22094;52.130;5.598;2023-09-08T05:46:09;28.17;;;22.88;;
23716;SDS011;22094;52.130;5.598;2023-09-08T05:48:35;23.00;;;19.17;;
23716;SDS011;22094;52.130;5.598;2023-09-08T05:51:01;17.92;;;15.85;;
23716;SDS011;22094;52.130;5.598;2023-09-08T05:53:27;17.13;;;14.68;;
23716;SDS011;22094;52.130;5.598;2023-09-08T05:55:53;14.95;;;13.13;;
23716;SDS011;22094;52.130;5.598;2023-09-08T05:58:18;17.65;;;12.85;;
23716;SDS011;22094;52.130;5.598;2023-09-08T06:00:44;16.92;;;12.85;;
23716;SDS011;22094;52.130;5.598;2023-09-08T06:03:10;16.38;;;13.18;;
23716;SDS011;22094;52.130;5.598;2023-09-08T06:05:35;14.23;;;12.73;;
23716;SDS011;22094;52.130;5.598;2023-09-08T06:08:01;18.00;;;13.32;;
23716;SDS011;22094;52.130;5.598;2023-09-08T06:10:26;19.73;;;13.85;;
23716;SDS011;22094;52.130;5.598;2023-09-08T06:12:52;19.63;;;14.73;;
23716;SDS011;22094;52.130;5.598;2023-09-08T06:15:18;18.65;;;14.57;;
23716;SDS011;22094;52.130;5.598;2023-09-08T06:17:43;17.13;;;14.57;;
23716;SDS011;22094;52.130;5.598;2023-09-08T06:20:09;18.20;;;15.05;;
23716;SDS011;22094;52.130;5.598;2023-09-08T06:22:35;16.98;;;14.95;;
23716;SDS011;22094;52.130;5.598;2023-09-08T06:25:01;16.75;;;15.05;;
23716;SDS011;22094;52.130;5.598;2023-09-08T06:27:26;21.08;;;16.70;;
23716;SDS011;22094;52.130;5.598;2023-09-08T06:29:52;19.25;;;16.25;;
23716;SDS011;22094;52.130;5.598;2023-09-08T06:32:18;18.88;;;16.35;;
23716;SDS011;22094;52.130;5.598;2023-09-08T06:34:43;18.95;;;16.45;;
23716;SDS011;22094;52.130;5.598;2023-09-08T06:37:10;19.70;;;16.35;;
23716;SDS011;22094;52.130;5.598;2023-09-08T06:39:36;21.92;;;16.15;;
23716;SDS011;22094;52.130;5.598;2023-09-08T06:42:01;18.98;;;15.73;;
23716;SDS011;22094;52.130;5.598;2023-09-08T06:44:29;21.70;;;16.50;;
23716;SDS011;22094;52.130;5.598;2023-09-08T06:46:55;21.88;;;16.10;;
23716;SDS011;22094;52.130;5.598;2023-09-08T06:49:21;20.00;;;17.45;;
23716;SDS011;22094;52.130;5.598;2023-09-08T06:51:46;18.90;;;16.85;;
23716;SDS011;22094;52.130;5.598;2023-09-08T06:54:13;18.60;;;16.70;;
23716;SDS011;22094;52.130;5.598;2023-09-08T06:56:39;19.80;;;16.90;;
23716;SDS011;22094;52.130;5.598;2023-09-08T06:59:04;18.92;;;16.90;;
23716;SDS011;22094;52.130;5.598;2023-09-08T07:01:30;18.98;;;16.92;;
23716;SDS011;22094;52.130;5.598;2023-09-08T07:03:56;19.02;;;17.13;;
23716;SDS011;22094;52.130;5.598;2023-09-08T07:06:21;18.98;;;16.27;;
23716;SDS011;22094;52.130;5.598;2023-09-08T07:08:47;21.33;;;16.73;;
23716;SDS011;22094;52.130;5.598;2023-09-08T07:11:15;17.75;;;15.95;;
23716;SDS011;22094;52.130;5.598;2023-09-08T07:13:41;17.05;;;15.23;;
23716;SDS011;22094;52.130;5.598;2023-09-08T07:16:06;17.30;;;14.98;;
23716;SDS011;22094;52.130;5.598;2023-09-08T07:18:32;18.23;;;13.02;;
23716;SDS011;22094;52.130;5.598;2023-09-08T07:21:00;15.15;;;12.80;;
23716;SDS011;22094;52.130;5.598;2023-09-08T07:23:27;13.10;;;10.82;;
23716;SDS011;22094;52.130;5.598;2023-09-08T07:25:52;15.98;;;11.25;;
23716;SDS011;22094;52.130;5.598;2023-09-08T07:28:18;12.32;;;10.35;;
23716;SDS011;22094;52.130;5.598;2023-09-08T07:30:44;12.63;;;10.68;;
23716;SDS011;22094;52.130;5.598;2023-09-08T07:33:10;12.65;;;10.40;;
23716;SDS011;22094;52.130;5.598;2023-09-08T07:35:39;12.73;;;10.07;;
23716;SDS011;22094;52.130;5.598;2023-09-08T07:38:05;12.93;;;10.25;;
23716;SDS011;22094;52.130;5.598;2023-09-08T07:40:34;12.68;;;10.15;;
23716;SDS011;22094;52.130;5.598;2023-09-08T07:43:00;13.40;;;9.85;;
23716;SDS011;22094;52.130;5.598;2023-09-08T07:45:26;11.48;;;9.18;;
23716;SDS011;22094;52.130;5.598;2023-09-08T07:47:51;13.88;;;10.93;;
23716;SDS011;22094;52.130;5.598;2023-09-08T07:50:18;11.75;;;10.30;;
23716;SDS011;22094;52.130;5.598;2023-09-08T07:52:53;11.48;;;9.70;;
23716;SDS011;22094;52.130;5.598;2023-09-08T07:55:20;12.20;;;10.50;;
23716;SDS011;22094;52.130;5.598;2023-09-08T07:57:52;14.80;;;10.60;;
23716;SDS011;22094;52.130;5.598;2023-09-08T08:00:18;14.88;;;10.13;;
23716;SDS011;22094;52.130;5.598;2023-09-08T08:02:51;10.68;;;9.50;;
23716;SDS011;22094;52.130;5.598;2023-09-08T08:05:19;11.07;;;9.98;;
23716;SDS011;22094;52.130;5.598;2023-09-08T08:07:45;13.23;;;9.98;;
23716;SDS011;22094;52.130;5.598;2023-09-08T08:10:11;16.45;;;10.45;;
23716;SDS011;22094;52.130;5.598;2023-09-08T08:12:38;16.70;;;10.00;;
23716;SDS011;22094;52.130;5.598;2023-09-08T08:15:04;15.90;;;9.60;;
23716;SDS011;22094;52.130;5.598;2023-09-08T08:17:31;10.50;;;8.93;;
23716;SDS011;22094;52.130;5.598;2023-09-08T08:19:56;18.65;;;10.25;;
23716;SDS011;22094;52.130;5.598;2023-09-08T08:22:31;14.05;;;9.15;;
23716;SDS011;22094;52.130;5.598;2023-09-08T08:25:01;11.63;;;8.68;;
23716;SDS011;22094;52.130;5.598;2023-09-08T08:27:28;13.27;;;9.52;;
23716;SDS011;22094;52.130;5.598;2023-09-08T08:29:55;9.68;;;8.68;;
23716;SDS011;22094;52.130;5.598;2023-09-08T08:32:22;10.38;;;9.38;;
23716;SDS011;22094;52.130;5.598;2023-09-08T08:34:48;11.15;;;9.07;;
23716;SDS011;22094;52.130;5.598;2023-09-08T08:37:14;11.35;;;8.98;;
23716;SDS011;22094;52.130;5.598;2023-09-08T08:39:39;10.10;;;8.95;;
23716;SDS011;22094;52.130;5.598;2023-09-08T08:42:08;13.55;;;9.45;;
23716;SDS011;22094;52.130;5.598;2023-09-08T08:44:35;10.15;;;8.65;;
23716;SDS011;22094;52.130;5.598;2023-09-08T08:47:02;10.07;;;8.93;;
23716;SDS011;22094;52.130;5.598;2023-09-08T08:49:30;11.30;;;8.98;;
23716;SDS011;22094;52.130;5.598;2023-09-08T08:51:57;9.40;;;8.38;;
23716;SDS011;22094;52.130;5.598;2023-09-08T08:54:24;11.63;;;9.23;;
23716;SDS011;22094;52.130;5.598;2023-09-08T08:56:50;10.35;;;9.00;;
23716;SDS011;22094;52.130;5.598;2023-09-08T08:59:16;12.98;;;9.20;;
23716;SDS011;22094;52.130;5.598;2023-09-08T09:01:42;10.70;;;8.70;;
23716;SDS011;22094;52.130;5.598;2023-09-08T09:04:08;10.45;;;8.18;;
23716;SDS011;22094;52.130;5.598;2023-09-08T09:06:35;13.55;;;9.25;;
23716;SDS011;22094;52.130;5.598;2023-09-08T09:09:01;9.05;;;7.75;;
23716;SDS011;22094;52.130;5.598;2023-09-08T09:11:29;10.40;;;8.60;;
23716;SDS011;22094;52.130;5.598;2023-09-08T09:13:56;8.68;;;7.70;;
23716;SDS011;22094;52.130;5.598;2023-09-08T09:16:23;11.07;;;8.48;;
23716;SDS011;22094;52.130;5.598;2023-09-08T09:18:56;10.43;;;7.47;;
23716;SDS011;22094;52.130;5.598;2023-09-08T09:21:40;13.15;;;7.97;;
23716;SDS011;22094;52.130;5.598;2023-09-08T09:24:06;12.20;;;8.20;;
23716;SDS011;22094;52.130;5.598;2023-09-08T09:26:32;14.50;;;7.63;;
23716;SDS011;22094;52.130;5.598;2023-09-08T09:28:58;11.65;;;8.80;;
23716;SDS011;22094;52.130;5.598;2023-09-08T09:31:24;12.63;;;8.90;;
23716;SDS011;22094;52.130;5.598;2023-09-08T09:34:03;10.52;;;8.98;;
23716;SDS011;22094;52.130;5.598;2023-09-08T09:36:30;10.65;;;8.60;;
23716;SDS011;22094;52.130;5.598;2023-09-08T09:38:59;9.95;;;8.43;;
23716;SDS011;22094;52.130;5.598;2023-09-08T09:41:27;13.45;;;8.13;;
23716;SDS011;22094;52.130;5.598;2023-09-08T09:43:54;15.43;;;9.95;;
23716;SDS011;22094;52.130;5.598;2023-09-08T09:46:21;11.60;;;7.80;;
23716;SDS011;22094;52.130;5.598;2023-09-08T09:48:50;9.07;;;7.65;;
23716;SDS011;22094;52.130;5.598;2023-09-08T09:51:18;13.77;;;8.18;;
23716;SDS011;22094;52.130;5.598;2023-09-08T09:53:44;8.85;;;7.03;;
23716;SDS011;22094;52.130;5.598;2023-09-08T09:56:11;12.73;;;8.45;;
23716;SDS011;22094;52.130;5.598;2023-09-08T09:58:38;11.68;;;8.98;;
23716;SDS011;22094;52.130;5.598;2023-09-08T10:01:05;12.43;;;10.07;;
23716;SDS011;22094;52.130;5.598;2023-09-08T10:03:31;14.10;;;9.60;;
23716;SDS011;22094;52.130;5.598;2023-09-08T10:05:58;10.27;;;7.95;;
23716;SDS011;22094;52.130;5.598;2023-09-08T10:08:24;10.10;;;8.90;;
23716;SDS011;22094;52.130;5.598;2023-09-08T10:10:50;7.97;;;7.15;;
23716;SDS011;22094;52.130;5.598;2023-09-08T10:13:23;12.30;;;8.13;;
23716;SDS011;22094;52.130;5.598;2023-09-08T10:15:57;11.43;;;8.48;;
23716;SDS011;22094;52.130;5.598;2023-09-08T10:18:23;10.65;;;7.22;;
23716;SDS011;22094;52.130;5.598;2023-09-08T10:20:51;11.07;;;8.65;;
23716;SDS011;22094;52.130;5.598;2023-09-08T10:23:22;10.50;;;8.35;;
23716;SDS011;22094;52.130;5.598;2023-09-08T10:25:53;11.23;;;9.07;;
23716;SDS011;22094;52.130;5.598;2023-09-08T10:28:24;15.45;;;8.32;;
23716;SDS011;22094;52.130;5.598;2023-09-08T10:30:51;10.23;;;6.32;;
23716;SDS011;22094;52.130;5.598;2023-09-08T10:33:17;7.57;;;6.50;;
23716;SDS011;22094;52.130;5.598;2023-09-08T10:35:44;9.20;;;7.28;;
23716;SDS011;22094;52.130;5.598;2023-09-08T10:38:26;9.50;;;7.80;;
23716;SDS011;22094;52.130;5.598;2023-09-08T10:41:37;9.65;;;7.05;;
23716;SDS011;22094;52.130;5.598;2023-09-08T10:44:02;9.95;;;6.80;;
23716;SDS011;22094;52.130;5.598;2023-09-08T10:46:30;13.02;;;7.25;;
23716;SDS011;22094;52.130;5.598;2023-09-08T10:49:01;9.05;;;7.25;;
23716;SDS011;22094;52.130;5.598;2023-09-08T10:51:28;8.82;;;6.30;;
23716;SDS011;22094;52.130;5.598;2023-09-08T10:53:54;11.70;;;5.72;;
23716;SDS011;22094;52.130;5.598;2023-09-08T10:56:22;5.93;;;5.38;;
23716;SDS011;22094;52.130;5.598;2023-09-08T10:58:53;6.65;;;6.00;;
23716;SDS011;22094;52.130;5.598;2023-09-08T11:01:20;9.35;;;7.00;;
23716;SDS011;22094;52.130;5.598;2023-09-08T11:03:52;11.75;;;7.03;;
23716;SDS011;22094;52.130;5.598;2023-09-08T11:06:19;11.88;;;8.50;;
23716;SDS011;22094;52.130;5.598;2023-09-08T11:08:47;8.38;;;7.57;;
23716;SDS011;22094;52.130;5.598;2023-09-08T11:11:15;11.13;;;7.07;;
23716;SDS011;22094;52.130;5.598;2023-09-08T11:13:41;8.73;;;7.07;;
23716;SDS011;22094;52.130;5.598;2023-09-08T11:16:10;11.95;;;6.60;;
23716;SDS011;22094;52.130;5.598;2023-09-08T11:18:36;8.95;;;7.53;;
23716;SDS011;22094;52.130;5.598;2023-09-08T11:21:03;10.23;;;7.07;;
23716;SDS011;22094;52.130;5.598;2023-09-08T11:23:32;11.35;;;5.68;;
23716;SDS011;22094;52.130;5.598;2023-09-08T11:25:59;7.32;;;5.60;;
23716;SDS011;22094;52.130;5.598;2023-09-08T11:28:25;15.55;;;5.63;;
23716;SDS011;22094;52.130;5.598;2023-09-08T11:30:52;7.63;;;5.78;;
23716;SDS011;22094;52.130;5.598;2023-09-08T11:33:20;8.77;;;7.35;;
23716;SDS011;22094;52.130;5.598;2023-09-08T11:35:50;11.60;;;7.43;;
23716;SDS011;22094;52.130;5.598;2023-09-08T11:38:17;7.55;;;5.95;;
23716;SDS011;22094;52.130;5.598;2023-09-08T11:40:43;6.68;;;6.00;;
23716;SDS011;22094;52.130;5.598;2023-09-08T11:43:09;8.23;;;5.57;;
23716;SDS011;22094;52.130;5.598;2023-09-08T11:45:35;6.60;;;5.88;;
23716;SDS011;22094;52.130;5.598;2023-09-08T11:48:01;7.38;;;5.95;;
23716;SDS011;22094;52.130;5.598;2023-09-08T11:50:27;8.50;;;6.40;;
23716;SDS011;22094;52.130;5.598;2023-09-08T11:52:53;7.65;;;6.40;;
23716;SDS011;22094;52.130;5.598;2023-09-08T11:55:20;9.32;;;5.57;;
23716;SDS011;22094;52.130;5.598;2023-09-08T11:57:48;11.85;;;7.43;;
23716;SDS011;22094;52.130;5.598;2023-09-08T12:00:16;11.57;;;7.15;;
23716;SDS011;22094;52.130;5.598;2023-09-08T12:02:44;9.27;;;5.53;;
23716;SDS011;22094;52.130;5.598;2023-09-08T12:05:11;6.38;;;5.70;;
23716;SDS011;22094;52.130;5.598;2023-09-08T12:07:50;7.30;;;5.28;;
23716;SDS011;22094;52.130;5.598;2023-09-08T12:10:16;6.60;;;5.78;;
23716;SDS011;22094;52.130;5.598;2023-09-08T12:12:43;9.13;;;6.60;;
23716;SDS011;22094;52.130;5.598;2023-09-08T12:15:10;8.02;;;6.18;;
23716;SDS011;22094;52.130;5.598;2023-09-08T12:18:10;11.55;;;6.38;;
23716;SDS011;22094;52.130;5.598;2023-09-08T12:20:38;9.70;;;5.78;;
23716;SDS011;22094;52.130;5.598;2023-09-08T12:23:06;12.52;;;5.55;;
23716;SDS011;22094;52.130;5.598;2023-09-08T12:25:50;5.22;;;4.70;;
23716;SDS011;22094;52.130;5.598;2023-09-08T12:28:19;9.05;;;4.85;;
23716;SDS011;22094;52.130;5.598;2023-09-08T12:30:46;6.93;;;4.68;;
23716;SDS011;22094;52.130;5.598;2023-09-08T12:33:12;5.03;;;4.45;;
23716;SDS011;22094;52.130;5.598;2023-09-08T12:35:42;5.50;;;4.32;;
23716;SDS011;22094;52.130;5.598;2023-09-08T12:38:09;9.57;;;4.28;;
23716;SDS011;22094;52.130;5.598;2023-09-08T12:40:36;7.97;;;3.80;;
23716;SDS011;22094;52.130;5.598;2023-09-08T12:43:02;6.28;;;4.00;;
23716;SDS011;22094;52.130;5.598;2023-09-08T12:45:28;8.38;;;3.80;;
23716;SDS011;22094;52.130;5.598;2023-09-08T12:47:57;8.15;;;4.13;;
23716;SDS011;22094;52.130;5.598;2023-09-08T12:50:24;5.72;;;4.60;;
23716;SDS011;22094;52.130;5.598;2023-09-08T12:52:51;5.65;;;4.70;;
23716;SDS011;22094;52.130;5.598;2023-09-08T12:55:17;5.30;;;4.50;;
23716;SDS011;22094;52.130;5.598;2023-09-08T12:57:43;5.97;;;4.72;;
23716;SDS011;22094;52.130;5.598;2023-09-08T13:00:08;4.63;;;4.10;;
23716;SDS011;22094;52.130;5.598;2023-09-08T13:02:34;7.15;;;4.03;;
23716;SDS011;22094;52.130;5.598;2023-09-08T13:05:01;8.10;;;4.82;;
23716;SDS011;22094;52.130;5.598;2023-09-08T13:07:27;7.10;;;4.85;;
23716;SDS011;22094;52.130;5.598;2023-09-08T13:09:53;7.82;;;5.10;;
23716;SDS011;22094;52.130;5.598;2023-09-08T13:12:19;7.35;;;5.25;;
23716;SDS011;22094;52.130;5.598;2023-09-08T13:14:44;5.57;;;4.88;;
23716;SDS011;22094;52.130;5.598;2023-09-08T13:17:10;7.95;;;5.00;;
23716;SDS011;22094;52.130;5.598;2023-09-08T13:19:36;6.35;;;5.10;;
23716;SDS011;22094;52.130;5.598;2023-09-08T13:22:05;9.68;;;5.55;;
23716;SDS011;22094;52.130;5.598;2023-09-08T13:24:30;5.65;;;5.10;;
23716;SDS011;22094;52.130;5.598;2023-09-08T13:26:56;11.82;;;5.75;;
23716;SDS011;22094;52.130;5.598;2023-09-08T13:29:22;6.80;;;4.95;;
23716;SDS011;22094;52.130;5.598;2023-09-08T13:31:48;8.25;;;5.22;;
23716;SDS011;22094;52.130;5.598;2023-09-08T13:34:13;7.65;;;5.43;;
23716;SDS011;22094;52.130;5.598;2023-09-08T13:36:39;6.97;;;4.85;;
23716;SDS011;22094;52.130;5.598;2023-09-08T13:39:05;7.68;;;5.10;;
23716;SDS011;22094;52.130;5.598;2023-09-08T13:41:47;6.50;;;5.85;;
23716;SDS011;22094;52.130;5.598;2023-09-08T13:44:14;10.60;;;6.25;;
23716;SDS011;22094;52.130;5.598;2023-09-08T13:46:40;7.18;;;5.15;;
23716;SDS011;22094;52.130;5.598;2023-09-08T13:49:06;10.30;;;5.45;;
23716;SDS011;22094;52.130;5.598;2023-09-08T13:51:31;6.97;;;4.97;;
23716;SDS011;22094;52.130;5.598;2023-09-08T13:53:58;7.55;;;4.97;;
23716;SDS011;22094;52.130;5.598;2023-09-08T13:56:24;9.90;;;5.72;;
23716;SDS011;22094;52.130;5.598;2023-09-08T13:58:49;16.33;;;5.63;;
23716;SDS011;22094;52.130;5.598;2023-09-08T14:01:15;9.13;;;6.13;;
23716;SDS011;22094;52.130;5.598;2023-09-08T14:03:40;13.15;;;6.05;;
23716;SDS011;22094;52.130;5.598;2023-09-08T14:06:06;12.57;;;6.40;;
23716;SDS011;22094;52.130;5.598;2023-09-08T14:08:31;11.20;;;4.93;;
23716;SDS011;22094;52.130;5.598;2023-09-08T14:10:57;6.28;;;5.15;;
23716;SDS011;22094;52.130;5.598;2023-09-08T14:13:22;6.55;;;5.13;;
23716;SDS011;22094;52.130;5.598;2023-09-08T14:15:48;6.68;;;5.13;;
23716;SDS011;22094;52.130;5.598;2023-09-08T14:18:14;7.82;;;5.32;;
23716;SDS011;22094;52.130;5.598;2023-09-08T14:20:40;6.72;;;5.07;;
23716;SDS011;22094;52.130;5.598;2023-09-08T14:23:06;10.45;;;4.97;;
23716;SDS011;22094;52.130;5.598;2023-09-08T14:25:33;6.80;;;4.60;;
23716;SDS011;22094;52.130;5.598;2023-09-08T14:27:59;4.53;;;4.05;;
23716;SDS011;22094;52.130;5.598;2023-09-08T14:30:28;8.85;;;4.50;;
23716;SDS011;22094;52.130;5.598;2023-09-08T14:32:53;9.73;;;4.38;;
23716;SDS011;22094;52.130;5.598;2023-09-08T14:35:19;6.22;;;4.53;;
23716;SDS011;22094;52.130;5.598;2023-09-08T14:37:46;5.55;;;3.97;;